createdAt,value
2022-10-03T00:00:12.054Z,9.38
2022-10-03T00:02:58.159Z,8.13
2022-10-03T00:05:38.861Z,5.97
2022-10-03T00:08:29.602Z,7.47
2022-10-03T00:11:15.575Z,5.30
2022-10-03T00:13:45.731Z,7.88
2022-10-03T00:16:19.308Z,6.38
2022-10-03T00:18:50.889Z,7.18
2022-10-03T00:21:18.159Z,6.22
2022-10-03T00:23:50.819Z,7.22
2022-10-03T00:26:27.775Z,6.53
2022-10-03T00:28:55.009Z,7.57
2022-10-03T00:31:43.760Z,5.10
2022-10-03T00:34:14.047Z,10.68
2022-10-03T00:36:49.924Z,5.78
2022-10-03T00:39:29.267Z,7.18
2022-10-03T00:41:56.757Z,4.15
2022-10-03T00:44:23.935Z,7.80
2022-10-03T00:47:00.862Z,6.00
2022-10-03T00:49:37.554Z,9.43
2022-10-03T00:52:11.289Z,7.75
2022-10-03T00:55:00.799Z,7.90
2022-10-03T00:57:51.144Z,3.55
2022-10-03T01:00:24.928Z,6.05
2022-10-03T01:02:52.455Z,6.40
2022-10-03T01:05:38.377Z,6.72
2022-10-03T01:08:08.725Z,6.85
2022-10-03T01:10:57.215Z,6.82
2022-10-03T01:13:43.368Z,5.90
2022-10-03T01:16:14.962Z,9.05
2022-10-03T01:18:52.931Z,9.80
2022-10-03T01:21:29.497Z,5.43
2022-10-03T01:24:11.744Z,3.63
2022-10-03T01:26:39.061Z,8.60
2022-10-03T01:29:28.367Z,8.88
2022-10-03T01:31:58.895Z,9.52
2022-10-03T01:34:28.959Z,9.93
2022-10-03T01:37:22.996Z,7.07
2022-10-03T01:39:50.611Z,12.05
2022-10-03T01:42:21.548Z,10.27
2022-10-03T01:45:18.075Z,9.73
2022-10-03T01:47:56.071Z,10.07
2022-10-03T01:50:35.083Z,11.45
2022-10-03T01:53:17.799Z,7.70
2022-10-03T01:56:12.334Z,7.43
2022-10-03T01:58:54.957Z,9.57
2022-10-03T02:01:31.790Z,7.65
2022-10-03T02:04:13.577Z,12.75
2022-10-03T02:06:50.053Z,10.30
2022-10-03T02:09:20.055Z,9.82
2022-10-03T02:11:50.756Z,10.02
2022-10-03T02:14:28.390Z,11.10
2022-10-03T02:17:14.544Z,13.10
2022-10-03T02:19:57.227Z,11.68
2022-10-03T02:22:30.575Z,6.88
2022-10-03T02:25:08.528Z,7.40
2022-10-03T02:27:54.467Z,9.85
2022-10-03T02:30:40.350Z,9.43
2022-10-03T02:33:07.792Z,10.02
2022-10-03T02:35:38.047Z,10.68
2022-10-03T02:38:19.532Z,12.25
2022-10-03T02:41:05.486Z,11.23
2022-10-03T02:43:33.254Z,11.73
2022-10-03T02:46:11.523Z,10.25
2022-10-03T02:48:45.164Z,7.70
2022-10-03T02:51:31.187Z,8.57
2022-10-03T02:54:10.849Z,9.70
2022-10-03T02:57:03.470Z,17.77
2022-10-03T02:59:48.214Z,13.02
2022-10-03T03:02:27.491Z,8.98
2022-10-03T03:04:56.838Z,10.95
2022-10-03T03:07:24.096Z,12.98
2022-10-03T03:10:14.869Z,9.48
2022-10-03T03:12:54.027Z,13.60
2022-10-03T03:15:30.119Z,8.18
2022-10-03T03:17:57.450Z,11.90
2022-10-03T03:20:43.359Z,8.95
2022-10-03T03:23:29.320Z,12.90
2022-10-03T03:26:06.139Z,13.32
2022-10-03T03:28:39.641Z,13.38
2022-10-03T03:31:07.249Z,14.25
2022-10-03T03:33:53.396Z,14.65
2022-10-03T03:36:37.851Z,11.13
2022-10-03T03:39:24.253Z,12.68
2022-10-03T03:42:23.894Z,13.70
2022-10-03T03:45:09.696Z,13.05
2022-10-03T03:47:37.755Z,16.33
2022-10-03T03:50:18.778Z,12.32
2022-10-03T03:52:58.428Z,13.82
2022-10-03T03:55:28.250Z,17.80
2022-10-03T03:58:11.048Z,14.75
2022-10-03T04:00:41.930Z,9.85
2022-10-03T04:03:25.876Z,11.63
2022-10-03T04:06:03.746Z,9.73
2022-10-03T04:09:01.396Z,11.73
2022-10-03T04:11:28.924Z,10.95
2022-10-03T04:13:56.457Z,12.93
2022-10-03T04:17:11.578Z,14.50
2022-10-03T04:19:57.232Z,12.82
2022-10-03T04:22:43.488Z,12.65
2022-10-03T04:25:29.208Z,15.40
2022-10-03T04:28:02.714Z,15.63
2022-10-03T04:30:33.078Z,13.30
2022-10-03T04:33:07.049Z,11.10
2022-10-03T04:35:52.780Z,16.98
2022-10-03T04:38:39.583Z,13.40
2022-10-03T04:41:27.697Z,11.85
2022-10-03T04:44:00.879Z,16.80
2022-10-03T04:46:28.209Z,13.38
2022-10-03T04:49:12.181Z,16.02
2022-10-03T04:51:46.988Z,15.23
2022-10-03T04:57:01.009Z,15.13
2022-10-03T04:59:43.148Z,14.35
2022-10-03T05:02:12.764Z,11.18
2022-10-03T05:04:45.404Z,20.35
2022-10-03T05:07:12.721Z,12.23
2022-10-03T05:09:42.942Z,14.95
2022-10-03T05:12:10.416Z,12.75
2022-10-03T05:14:56.238Z,11.68
2022-10-03T05:17:29.157Z,12.63
2022-10-03T05:19:56.398Z,15.90
2022-10-03T05:22:42.334Z,12.73
2022-10-03T05:25:19.410Z,17.77
2022-10-03T05:28:01.691Z,15.07
2022-10-03T05:30:34.898Z,11.45
2022-10-03T05:33:08.912Z,12.25
2022-10-03T05:35:45.650Z,12.85
2022-10-03T05:38:31.560Z,16.50
2022-10-03T05:41:02.039Z,16.17
2022-10-03T05:43:36.353Z,15.02
2022-10-03T05:46:29.459Z,13.25
2022-10-03T05:49:04.994Z,13.55
2022-10-03T05:51:39.404Z,13.85
2022-10-03T05:56:43.099Z,13.00
2022-10-03T05:59:21.937Z,12.27
2022-10-03T06:01:52.238Z,15.00
2022-10-03T06:04:28.454Z,16.88
2022-10-03T06:07:19.460Z,12.45
2022-10-03T06:09:58.132Z,17.02
2022-10-03T06:12:25.492Z,15.25
2022-10-03T06:14:59.139Z,14.90
2022-10-03T06:17:42.991Z,13.68
2022-10-03T06:20:29.394Z,14.18
2022-10-03T06:23:15.178Z,15.57
2022-10-03T06:26:00.980Z,13.02
2022-10-03T06:28:46.475Z,13.93
2022-10-03T06:31:32.529Z,19.88
2022-10-03T06:33:59.809Z,15.07
2022-10-03T06:36:37.724Z,12.45
2022-10-03T06:39:23.666Z,13.20
2022-10-03T06:42:09.672Z,16.25
2022-10-03T06:44:41.105Z,16.27
2022-10-03T06:47:17.901Z,12.57
2022-10-03T06:49:51.012Z,13.65
2022-10-03T06:52:37.292Z,14.20
2022-10-03T06:55:10.954Z,14.23
2022-10-03T06:57:48.093Z,11.05
2022-10-03T07:00:22.783Z,17.50
2022-10-03T07:02:52.968Z,15.35
2022-10-03T07:05:23.017Z,10.70
2022-10-03T07:08:10.583Z,12.50
2022-10-03T07:10:44.233Z,13.18
2022-10-03T07:13:17.294Z,12.35
2022-10-03T07:18:57.139Z,13.23
2022-10-03T07:22:02.779Z,12.63
2022-10-03T07:24:48.934Z,17.17
2022-10-03T07:27:19.667Z,12.43
2022-10-03T07:29:46.951Z,12.63
2022-10-03T07:32:23.366Z,11.00
2022-10-03T07:35:13.540Z,14.88
2022-10-03T07:38:15.053Z,14.27
2022-10-03T07:41:00.743Z,16.88
2022-10-03T07:43:43.336Z,14.43
2022-10-03T07:46:28.922Z,12.93
2022-10-03T07:49:18.544Z,14.30
2022-10-03T07:52:04.801Z,13.52
2022-10-03T07:54:32.337Z,13.23
2022-10-03T07:57:06.029Z,17.95
2022-10-03T07:59:35.821Z,11.25
2022-10-03T08:02:21.541Z,13.32
2022-10-03T08:04:54.934Z,14.23
2022-10-03T08:07:40.732Z,11.20
2022-10-03T08:10:09.311Z,17.05
2022-10-03T08:12:38.463Z,10.10
2022-10-03T08:15:14.475Z,13.63
2022-10-03T08:17:53.651Z,12.93
2022-10-03T08:20:33.183Z,10.40
2022-10-03T08:23:06.263Z,13.30
2022-10-03T08:25:52.753Z,15.00
2022-10-03T08:28:20.028Z,12.15
2022-10-03T08:31:05.881Z,13.50
2022-10-03T08:33:42.585Z,12.77
2022-10-03T08:36:28.780Z,13.25
2022-10-03T08:38:59.766Z,9.82
2022-10-03T08:41:39.106Z,10.95
2022-10-03T08:44:06.658Z,14.27
2022-10-03T08:46:52.757Z,12.68
2022-10-03T08:49:26.045Z,13.60
2022-10-03T08:52:02.609Z,12.98
2022-10-03T08:54:45.112Z,12.27
2022-10-03T08:57:18.952Z,11.05
2022-10-03T08:59:46.248Z,13.00
2022-10-03T09:02:39.539Z,10.43
2022-10-03T09:05:22.027Z,9.93
2022-10-03T09:08:08.066Z,11.00
2022-10-03T09:10:37.849Z,11.65
2022-10-03T09:13:49.759Z,12.52
2022-10-03T09:16:58.573Z,13.07
2022-10-03T09:19:25.392Z,9.38
2022-10-03T09:22:24.087Z,34.20
2022-10-03T09:25:09.599Z,11.38
2022-10-03T09:27:54.380Z,12.30
2022-10-03T09:30:23.045Z,10.32
2022-10-03T09:33:08.494Z,10.70
2022-10-03T09:36:08.865Z,12.65
2022-10-03T09:39:02.838Z,7.65
2022-10-03T09:41:38.712Z,10.38
2022-10-03T09:44:53.607Z,10.73
2022-10-03T09:47:55.301Z,10.82
2022-10-03T09:50:47.123Z,13.00
2022-10-03T09:53:32.290Z,13.25
2022-10-03T09:58:52.239Z,17.38
2022-10-03T10:01:38.185Z,13.10
2022-10-03T10:04:54.395Z,18.23
2022-10-03T10:07:55.955Z,9.13
2022-10-03T10:10:51.255Z,12.40
2022-10-03T10:14:03.277Z,10.65
2022-10-03T10:16:51.965Z,11.30
2022-10-03T10:19:44.783Z,9.90
2022-10-03T10:22:30.419Z,10.95
2022-10-03T10:25:20.392Z,6.50
2022-10-03T10:28:16.891Z,10.77
2022-10-03T10:31:15.100Z,10.15
2022-10-03T10:33:44.900Z,12.05
2022-10-03T10:36:48.829Z,8.95
2022-10-03T10:39:40.557Z,9.73
2022-10-03T10:42:38.423Z,12.52
2022-10-03T10:45:32.910Z,11.40
2022-10-03T10:48:27.745Z,7.87
2022-10-03T10:51:13.106Z,10.55
2022-10-03T10:54:32.275Z,17.13
2022-10-03T10:57:29.648Z,9.00
2022-10-03T11:00:18.444Z,11.45
2022-10-03T11:03:22.958Z,9.20
2022-10-03T11:06:11.787Z,6.63
2022-10-03T11:09:19.818Z,10.38
2022-10-03T11:12:23.767Z,8.38
2022-10-03T11:15:26.686Z,7.18
2022-10-03T11:18:08.570Z,7.50
2022-10-03T11:21:17.343Z,7.55
2022-10-03T11:24:16.448Z,7.10
2022-10-03T11:27:07.150Z,4.53
2022-10-03T11:30:11.432Z,7.68
2022-10-03T11:33:16.025Z,8.85
2022-10-03T11:36:06.989Z,7.47
2022-10-03T11:38:44.053Z,8.95
2022-10-03T11:41:35.093Z,8.88
2022-10-03T11:44:26.097Z,6.80
2022-10-03T11:47:00.215Z,5.82
2022-10-03T11:49:57.752Z,5.07
2022-10-03T11:52:30.264Z,7.75
2022-10-03T11:55:18.256Z,6.95
2022-10-03T11:58:00.727Z,6.85
2022-10-03T12:00:33.262Z,6.15
2022-10-03T12:03:30.352Z,8.23
2022-10-03T12:06:27.343Z,7.53
2022-10-03T12:09:17.664Z,7.90
2022-10-03T12:11:57.906Z,8.43
2022-10-03T12:14:29.507Z,10.10
2022-10-03T12:17:11.880Z,7.43
2022-10-03T12:20:23.383Z,8.90
2022-10-03T12:22:56.185Z,8.20
2022-10-03T12:25:43.299Z,9.60
2022-10-03T12:28:35.229Z,6.95
2022-10-03T12:31:26.343Z,8.43
2022-10-03T12:34:19.770Z,9.45
2022-10-03T12:37:10.976Z,7.05
2022-10-03T12:40:07.760Z,7.88
2022-10-03T12:43:01.536Z,9.30
2022-10-03T12:46:13.480Z,9.02
2022-10-03T12:48:56.801Z,9.10
2022-10-03T12:51:36.117Z,9.38
2022-10-03T12:54:24.705Z,11.15
2022-10-03T12:57:30.687Z,8.18
2022-10-03T13:00:24.159Z,7.80
2022-10-03T13:03:17.324Z,12.40
2022-10-03T13:06:16.398Z,8.73
2022-10-03T13:08:51.295Z,8.20
2022-10-03T13:11:25.925Z,8.43
2022-10-03T13:16:39.990Z,8.77
2022-10-03T13:19:13.342Z,12.35
2022-10-03T13:22:07.171Z,7.03
2022-10-03T13:24:37.148Z,8.90
2022-10-03T13:27:10.684Z,9.60
2022-10-03T13:29:42.548Z,7.85
2022-10-03T13:32:18.750Z,11.93
2022-10-03T13:35:34.442Z,7.90
2022-10-03T13:38:46.886Z,10.18
2022-10-03T13:41:44.803Z,10.55
2022-10-03T13:44:17.927Z,9.02
2022-10-03T13:46:58.064Z,8.70
2022-10-03T13:49:34.299Z,10.13
2022-10-03T13:52:11.532Z,11.68
2022-10-03T13:54:39.384Z,8.95
2022-10-03T13:57:17.285Z,10.90
2022-10-03T14:00:08.629Z,8.65
2022-10-03T14:02:46.278Z,7.10
2022-10-03T14:05:31.302Z,6.50
2022-10-03T14:11:00.953Z,11.77
2022-10-03T14:13:52.943Z,10.30
2022-10-03T14:16:31.159Z,10.82
2022-10-03T14:19:18.797Z,8.00
2022-10-03T14:22:19.944Z,7.43
2022-10-03T14:25:11.311Z,6.85
2022-10-03T14:27:49.734Z,9.80
2022-10-03T14:31:04.434Z,9.85
2022-10-03T14:34:02.579Z,8.55
2022-10-03T14:36:52.403Z,8.05
2022-10-03T14:39:26.048Z,10.48
2022-10-03T14:41:55.458Z,7.85
2022-10-03T14:44:36.478Z,7.25
2022-10-03T14:47:09.223Z,7.88
2022-10-03T14:49:54.844Z,8.27
2022-10-03T14:52:48.331Z,9.98
2022-10-03T14:55:27.582Z,9.00
2022-10-03T14:58:11.489Z,7.97
2022-10-03T15:01:18.936Z,11.50
2022-10-03T15:04:01.814Z,7.13
2022-10-03T15:06:35.377Z,7.28
2022-10-03T15:09:25.521Z,7.63
2022-10-03T15:12:18.734Z,8.18
2022-10-03T15:14:54.264Z,10.63
2022-10-03T15:17:24.295Z,9.00
2022-10-03T15:19:56.092Z,9.98
2022-10-03T15:22:33.366Z,9.98
2022-10-03T15:25:17.894Z,9.02
2022-10-03T15:27:50.631Z,10.00
2022-10-03T15:30:32.012Z,10.13
2022-10-03T15:33:17.560Z,6.63
2022-10-03T15:35:48.831Z,6.35
2022-10-03T15:38:21.451Z,5.38
2022-10-03T15:41:07.160Z,5.57
2022-10-03T15:43:47.112Z,7.57
2022-10-03T15:46:33.851Z,9.07
2022-10-03T15:49:09.117Z,5.95
2022-10-03T15:51:38.933Z,6.25
2022-10-03T15:54:09.300Z,7.97
2022-10-03T15:56:42.440Z,5.90
2022-10-03T15:59:30.098Z,6.07
2022-10-03T16:01:58.796Z,7.97
2022-10-03T16:04:30.706Z,4.40
2022-10-03T16:07:09.481Z,3.88
2022-10-03T16:09:54.327Z,6.28
2022-10-03T16:12:48.580Z,9.15
2022-10-03T16:15:17.296Z,9.35
2022-10-03T16:18:02.106Z,8.43
2022-10-03T16:20:41.710Z,9.45
2022-10-03T16:23:25.851Z,7.50
2022-10-03T16:25:59.497Z,8.98
2022-10-03T16:28:39.488Z,10.70
2022-10-03T16:31:11.686Z,13.50
2022-10-03T16:33:42.929Z,7.28
2022-10-03T16:36:16.390Z,5.65
2022-10-03T16:39:04.594Z,10.57
2022-10-03T16:41:35.019Z,6.75
2022-10-03T16:44:40.497Z,6.75
2022-10-03T16:47:09.573Z,5.85
2022-10-03T16:50:08.364Z,5.20
2022-10-03T16:52:40.260Z,5.07
2022-10-03T16:55:17.302Z,6.47
2022-10-03T16:57:49.491Z,5.97
2022-10-03T17:00:30.783Z,7.65
2022-10-03T17:02:57.939Z,6.40
2022-10-03T17:05:25.222Z,6.38
2022-10-03T17:08:06.722Z,6.88
2022-10-03T17:10:52.345Z,7.63
2022-10-03T17:13:24.095Z,7.25
2022-10-03T17:16:00.123Z,6.97
2022-10-03T17:18:44.678Z,9.57
2022-10-03T17:21:25.867Z,4.40
2022-10-03T17:23:52.785Z,4.20
2022-10-03T17:26:32.847Z,8.77
2022-10-03T17:29:18.401Z,6.18
2022-10-03T17:32:00.530Z,6.53
2022-10-03T17:34:31.335Z,11.15
2022-10-03T17:37:30.160Z,8.18
2022-10-03T17:40:14.539Z,6.80
2022-10-03T17:42:47.223Z,5.72
2022-10-03T17:45:33.415Z,4.35
2022-10-03T17:48:05.062Z,9.30
2022-10-03T17:50:53.079Z,6.57
2022-10-03T17:53:26.548Z,7.50
2022-10-03T17:56:01.477Z,7.78
2022-10-03T17:58:31.540Z,5.53
2022-10-03T18:01:12.796Z,6.50
2022-10-03T18:03:39.715Z,8.00
2022-10-03T18:06:37.364Z,7.70
2022-10-03T18:09:15.862Z,7.88
2022-10-03T18:11:45.149Z,9.65
2022-10-03T18:14:41.557Z,8.25
2022-10-03T18:17:17.390Z,7.47
2022-10-03T18:20:02.391Z,10.60
2022-10-03T18:26:20.207Z,8.13
2022-10-03T18:28:47.434Z,6.43
2022-10-03T18:31:22.462Z,5.88
2022-10-03T18:33:55.567Z,8.10
2022-10-03T18:36:35.478Z,6.90
2022-10-03T18:39:21.764Z,10.35
2022-10-03T18:41:52.314Z,9.30
2022-10-03T18:44:22.444Z,8.52
2022-10-03T18:46:54.995Z,7.40
2022-10-03T18:49:35.108Z,6.45
2022-10-03T18:52:08.660Z,7.68
2022-10-03T18:54:40.448Z,7.07
2022-10-03T18:57:28.643Z,5.82
2022-10-03T19:00:18.401Z,10.85
2022-10-03T19:03:12.127Z,7.30
2022-10-03T19:05:53.305Z,5.97
2022-10-03T19:08:29.607Z,10.80
2022-10-03T19:11:15.464Z,7.82
2022-10-03T19:13:54.090Z,7.63
2022-10-03T19:16:57.138Z,7.45
2022-10-03T19:19:54.232Z,7.07
2022-10-03T19:22:39.319Z,7.32
2022-10-03T19:25:13.894Z,9.95
2022-10-03T19:27:50.177Z,4.30
2022-10-03T19:30:23.021Z,5.88
2022-10-03T19:32:58.808Z,7.93
2022-10-03T19:35:27.067Z,6.57
2022-10-03T19:38:03.156Z,7.15
2022-10-03T19:40:38.676Z,6.60
2022-10-03T19:43:32.907Z,9.57
2022-10-03T19:46:15.203Z,12.45
2022-10-03T19:48:49.036Z,5.60
2022-10-03T19:51:25.640Z,8.48
2022-10-03T19:53:55.207Z,7.85
2022-10-03T19:56:24.941Z,7.97
2022-10-03T19:58:59.882Z,8.40
2022-10-03T20:01:27.242Z,9.40
2022-10-03T20:03:57.896Z,7.82
2022-10-03T20:06:35.237Z,8.27
2022-10-03T20:09:05.925Z,10.43
2022-10-03T20:11:35.893Z,11.38
2022-10-03T20:14:03.791Z,7.38
2022-10-03T20:16:35.913Z,10.45
2022-10-03T20:19:10.602Z,8.98
2022-10-03T20:21:38.020Z,8.50
2022-10-03T20:24:21.816Z,8.27
2022-10-03T20:27:10.700Z,7.57
2022-10-03T20:29:45.966Z,9.52
2022-10-03T20:32:16.495Z,9.98
2022-10-03T20:34:54.999Z,9.43
2022-10-03T20:37:25.198Z,7.93
2022-10-03T20:39:55.711Z,10.00
2022-10-03T20:42:31.128Z,8.55
2022-10-03T20:45:03.824Z,11.20
2022-10-03T20:48:00.843Z,11.65
2022-10-03T20:50:43.685Z,9.77
2022-10-03T20:53:20.726Z,9.50
2022-10-03T20:55:57.132Z,9.52
2022-10-03T20:58:35.391Z,12.40
2022-10-03T21:01:10.347Z,9.27
2022-10-03T21:03:58.812Z,7.75
2022-10-03T21:06:31.164Z,11.38
2022-10-03T21:09:01.214Z,8.48
2022-10-03T21:11:30.889Z,9.48
2022-10-03T21:13:57.827Z,10.18
2022-10-03T21:16:31.004Z,10.02
2022-10-03T21:19:12.320Z,10.32
2022-10-03T21:21:44.932Z,7.65
2022-10-03T21:24:24.592Z,10.75
2022-10-03T21:27:00.223Z,9.15
2022-10-03T21:29:55.894Z,10.65
2022-10-03T21:32:49.271Z,10.40
2022-10-03T21:35:16.143Z,16.65
2022-10-03T21:38:01.431Z,13.52
2022-10-03T21:40:48.878Z,10.40
2022-10-03T21:43:21.667Z,15.88
2022-10-03T21:46:13.199Z,11.40
2022-10-03T21:48:59.096Z,12.95
2022-10-03T21:51:32.657Z,11.93
2022-10-03T21:54:24.610Z,11.73
2022-10-03T21:57:16.208Z,13.05
2022-10-03T22:00:12.711Z,13.70
2022-10-03T22:02:58.261Z,14.52
2022-10-03T22:05:40.476Z,13.35
2022-10-03T22:08:27.231Z,16.58
2022-10-03T22:11:33.996Z,16.75
2022-10-03T22:14:15.744Z,13.35
2022-10-03T22:17:08.534Z,18.75
2022-10-03T22:20:11.750Z,16.15
2022-10-03T22:22:42.110Z,15.38
2022-10-03T22:25:50.089Z,11.82
2022-10-03T22:28:17.028Z,15.57
2022-10-03T22:31:13.224Z,13.50
2022-10-03T22:33:55.478Z,12.38
2022-10-03T22:36:22.837Z,14.98
2022-10-03T22:38:50.663Z,12.27
2022-10-03T22:41:24.013Z,15.02
2022-10-03T22:43:53.535Z,14.65
2022-10-03T22:46:26.583Z,13.85
2022-10-03T22:49:21.037Z,13.20
2022-10-03T22:51:51.281Z,15.25
2022-10-03T22:54:19.277Z,16.60
2022-10-03T22:56:55.288Z,12.32
2022-10-03T22:59:28.770Z,14.13
2022-10-03T23:02:00.632Z,12.48
2022-10-03T23:04:37.176Z,11.90
2022-10-03T23:07:13.530Z,13.02
2022-10-03T23:09:55.534Z,15.93
2022-10-03T23:12:27.108Z,14.63
2022-10-03T23:14:56.044Z,13.80
2022-10-03T23:17:44.459Z,14.15
2022-10-03T23:20:51.017Z,12.90
2022-10-03T23:23:30.271Z,13.73
2022-10-03T23:26:09.834Z,11.07
2022-10-03T23:28:52.533Z,13.60
2022-10-03T23:31:53.657Z,14.02
2022-10-03T23:34:35.990Z,13.38
2022-10-03T23:37:14.874Z,13.48
2022-10-03T23:39:43.470Z,15.63
2022-10-03T23:42:15.803Z,16.33
2022-10-03T23:44:53.429Z,14.32
2022-10-03T23:47:26.871Z,12.80
2022-10-03T23:49:55.244Z,14.20
2022-10-03T23:52:32.853Z,16.05
2022-10-03T23:55:03.414Z,14.35
2022-10-03T23:57:38.712Z,14.38
